Kingsburg, California
Current Conditions -  °F | °C
As of 1:53 AM on Friday 19 Dec 2014 (Local Time) from KHJO Reporting Station
Haze Haze  
Wind Chill: 46°   Ceiling: Unl
Heat Index: 46°   Visibility: 6mi
Dew Point: 43°   Wind: 3mph
Humidity: 89%   Direction: 100°E
Pressure: 30.2"   Gusts: NA
Location:  36.51°N, 119.55°W
Report Text: KHJO 190953Z AUTO 10003KT 6SM BR CLR 08/06 A3020 RMK AO2 SLP229 T00780061
Loading
Personal Weather Stations






























Interactive Weather Map New forecast layout! Learn more

10-Day Weather Forecast

Advertisements
Track Severe Weather on mobile